New Hope, Indiana
Current Conditions -  °F | °C
As of 6:53 AM on Friday 28 Nov 2014 (Local Time) from KBMG Reporting Station
Overcast Overcast  
Wind Chill: 15°   Ceiling: 8000
Heat Index: 21°   Visibility: 8mi
Dew Point: 18°   Wind: 5mph
Humidity: 88%   Direction: 190°S
Pressure: 30.38"   Gusts: NA
Location:  39.3008°N, 86.8112°W
Report Text: KBMG 281153Z 19004KT 8SM OVC080 M06/M08 A3038 RMK AO2 SLP298 I6000 T10611078 11061 21094 56009
Loading
Personal Weather Stations






























Interactive Weather Map New forecast layout! Learn more

10-Day Weather Forecast

Advertisements
Track Severe Weather on mobile